createdAt,value
2019-01-08T00:00:00.354Z,81.59
2019-01-08T00:02:29.703Z,81.64
2019-01-08T00:04:58.097Z,83.59
2019-01-08T00:07:27.422Z,82.69
2019-01-08T00:09:55.839Z,82.44
2019-01-08T00:12:24.451Z,82.00
2019-01-08T00:14:53.789Z,82.46
2019-01-08T00:17:23.122Z,82.10
2019-01-08T00:19:52.481Z,82.67
2019-01-08T00:22:21.798Z,83.90
2019-01-08T00:24:51.181Z,81.97
2019-01-08T00:27:20.497Z,82.34
2019-01-08T00:29:49.811Z,82.15
2019-01-08T00:32:19.146Z,81.68
2019-01-08T00:34:47.677Z,80.96
2019-01-08T00:37:16.295Z,81.42
2019-01-08T00:39:45.623Z,81.93
2019-01-08T00:42:14.945Z,79.74
2019-01-08T00:44:44.253Z,79.88
2019-01-08T00:47:13.567Z,81.79
2019-01-08T00:49:42.899Z,79.30
2019-01-08T00:52:12.229Z,80.47
2019-01-08T00:54:41.566Z,80.13
2019-01-08T00:57:11.001Z,79.79
2019-01-08T00:59:40.342Z,79.96
2019-01-08T01:02:08.756Z,79.63
2019-01-08T01:04:37.282Z,79.84
2019-01-08T01:07:06.825Z,79.54
2019-01-08T01:09:36.577Z,79.64
2019-01-08T01:12:06.139Z,81.31
2019-01-08T01:14:34.989Z,82.85
2019-01-08T01:17:04.563Z,80.96
2019-01-08T01:19:34.106Z,81.36
2019-01-08T01:22:03.744Z,80.20
2019-01-08T01:24:33.306Z,83.52
2019-01-08T01:27:01.964Z,80.43
2019-01-08T01:29:30.393Z,81.60
2019-01-08T01:31:58.807Z,81.88
2019-01-08T01:34:28.136Z,84.81
2019-01-08T01:36:57.461Z,81.70
2019-01-08T01:39:26.783Z,81.56
2019-01-08T01:41:56.107Z,81.88
2019-01-08T01:44:25.751Z,81.70
2019-01-08T01:46:54.165Z,81.68
2019-01-08T01:49:22.703Z,82.53
2019-01-08T01:51:52.024Z,82.76
2019-01-08T01:54:20.426Z,83.92
2019-01-08T01:56:49.854Z,84.25
2019-01-08T01:59:30.035Z,82.48
2019-01-08T02:01:59.366Z,82.42
2019-01-08T02:04:28.685Z,83.11
2019-01-08T02:06:57.204Z,83.07
2019-01-08T02:09:26.521Z,82.82
2019-01-08T02:11:55.870Z,83.29
2019-01-08T02:14:24.273Z,83.00
2019-01-08T02:16:52.794Z,83.67
2019-01-08T02:19:22.117Z,83.01
2019-01-08T02:21:50.557Z,83.00
2019-01-08T02:24:19.088Z,84.99
2019-01-08T02:26:48.489Z,83.34
2019-01-08T02:29:17.816Z,84.62
2019-01-08T02:31:47.348Z,82.85
2019-01-08T02:34:15.929Z,82.82
2019-01-08T02:36:45.235Z,82.68
2019-01-08T02:39:13.666Z,84.02
2019-01-08T02:41:43.044Z,83.33
2019-01-08T02:44:12.513Z,83.19
2019-01-08T02:46:42.151Z,84.90
2019-01-08T02:49:31.159Z,83.81
2019-01-08T02:52:00.469Z,84.17
2019-01-08T02:54:29.814Z,83.63
2019-01-08T02:56:59.173Z,83.35
2019-01-08T02:59:27.584Z,83.42
2019-01-08T03:01:56.001Z,83.17
2019-01-08T03:04:25.330Z,83.86
2019-01-08T03:06:54.642Z,83.95
2019-01-08T03:09:23.977Z,83.69
2019-01-08T03:11:53.299Z,84.88
2019-01-08T03:14:22.614Z,84.19
2019-01-08T03:16:51.939Z,83.17
2019-01-08T03:19:21.271Z,83.22
2019-01-08T03:21:50.607Z,83.19
2019-01-08T03:24:19.007Z,83.39
2019-01-08T03:26:47.442Z,82.99
2019-01-08T03:29:16.760Z,83.21
2019-01-08T03:31:46.104Z,82.70
2019-01-08T03:34:15.430Z,81.76
2019-01-08T03:36:44.753Z,83.20
2019-01-08T03:39:14.090Z,83.59
2019-01-08T03:41:43.421Z,83.43
2019-01-08T03:44:12.729Z,82.58
2019-01-08T03:46:41.253Z,81.55
2019-01-08T03:49:09.697Z,80.21
2019-01-08T03:51:39.014Z,81.68
2019-01-08T03:54:08.342Z,82.75
2019-01-08T03:56:37.665Z,79.80
2019-01-08T03:59:06.993Z,80.52
2019-01-08T04:01:36.320Z,80.57
2019-01-08T04:04:05.664Z,80.89
2019-01-08T04:06:34.070Z,80.42
2019-01-08T04:09:05.092Z,80.15
2019-01-08T04:11:33.505Z,84.76
2019-01-08T04:14:02.037Z,80.12
2019-01-08T04:16:30.658Z,81.69
2019-01-08T04:19:00.009Z,81.08
2019-01-08T04:21:29.333Z,79.99
2019-01-08T04:23:58.658Z,81.09
2019-01-08T04:26:28.106Z,80.92
2019-01-08T04:28:57.447Z,81.62
2019-01-08T04:31:26.843Z,81.92
2019-01-08T04:33:56.187Z,80.45
2019-01-08T04:36:25.508Z,80.15
2019-01-08T04:38:54.818Z,80.18
2019-01-08T04:41:23.342Z,79.98
2019-01-08T04:43:51.752Z,80.75
2019-01-08T04:46:21.098Z,80.59
2019-01-08T04:48:49.519Z,80.36
2019-01-08T04:51:18.039Z,79.75
2019-01-08T04:53:47.357Z,78.57
2019-01-08T04:56:16.673Z,78.79
2019-01-08T04:58:46.014Z,79.45
2019-01-08T05:01:14.558Z,79.53
2019-01-08T05:03:42.981Z,78.98
2019-01-08T05:06:12.465Z,79.36
2019-01-08T05:08:41.809Z,80.48
2019-01-08T05:11:11.128Z,80.87
2019-01-08T05:13:40.465Z,79.69
2019-01-08T05:16:09.786Z,79.10
2019-01-08T05:18:39.116Z,78.32
2019-01-08T05:21:08.426Z,78.08
2019-01-08T05:23:36.978Z,79.54
2019-01-08T05:26:06.309Z,78.94
2019-01-08T05:28:35.632Z,82.77
2019-01-08T05:31:04.188Z,77.77
2019-01-08T05:33:33.500Z,78.94
2019-01-08T05:36:02.927Z,78.22
2019-01-08T05:38:32.249Z,80.12
2019-01-08T05:41:01.573Z,78.54
2019-01-08T05:43:30.893Z,77.98
2019-01-08T05:46:00.202Z,77.79
2019-01-08T05:48:28.617Z,79.91
2019-01-08T05:50:57.953Z,79.55
2019-01-08T05:53:26.388Z,79.12
2019-01-08T05:55:55.705Z,79.57
2019-01-08T05:58:25.033Z,78.05
2019-01-08T06:00:54.361Z,78.06
2019-01-08T06:03:23.698Z,77.89
2019-01-08T06:05:53.015Z,77.59
2019-01-08T06:08:21.783Z,77.22
2019-01-08T06:10:51.104Z,77.81
2019-01-08T06:13:19.672Z,79.33
2019-01-08T06:15:48.092Z,78.85
2019-01-08T06:18:17.443Z,78.98
2019-01-08T06:20:46.786Z,77.24
2019-01-08T06:23:16.117Z,77.41
2019-01-08T06:25:45.510Z,78.46
2019-01-08T06:28:14.834Z,77.38
2019-01-08T06:30:44.171Z,77.96
2019-01-08T06:38:59.233Z,77.71
2019-01-08T06:41:28.585Z,78.16
2019-01-08T06:43:57.913Z,76.99
2019-01-08T06:46:27.257Z,77.58
2019-01-08T06:48:55.847Z,76.64
2019-01-08T06:51:24.249Z,76.04
2019-01-08T06:53:52.793Z,80.93
2019-01-08T06:56:22.143Z,74.52
2019-01-08T06:58:50.553Z,76.15
2019-01-08T07:01:18.899Z,74.60
2019-01-08T07:03:48.253Z,76.30
2019-01-08T07:06:17.605Z,75.35
2019-01-08T07:08:46.973Z,77.06
2019-01-08T07:11:16.305Z,76.12
2019-01-08T07:13:45.639Z,76.41
2019-01-08T07:16:14.218Z,77.69
2019-01-08T07:18:43.576Z,79.39
2019-01-08T07:21:12.925Z,74.94
2019-01-08T07:23:41.353Z,75.75
2019-01-08T07:26:10.697Z,75.74
2019-01-08T07:28:40.150Z,77.36
2019-01-08T07:31:09.642Z,81.47
2019-01-08T07:33:39.110Z,74.09
2019-01-08T07:36:08.426Z,74.87
2019-01-08T07:38:37.769Z,74.84
2019-01-08T07:41:06.194Z,77.86
2019-01-08T07:43:34.628Z,76.68
2019-01-08T07:46:03.115Z,73.60
2019-01-08T07:48:32.427Z,75.24
2019-01-08T07:51:01.793Z,74.54
2019-01-08T07:53:31.547Z,73.12
2019-01-08T07:56:00.892Z,75.22
2019-01-08T07:58:30.224Z,73.52
2019-01-08T08:00:59.538Z,73.06
2019-01-08T08:03:27.967Z,74.83
2019-01-08T08:05:56.580Z,73.09
2019-01-08T08:08:25.952Z,81.70
2019-01-08T08:10:54.396Z,74.69
2019-01-08T08:13:23.728Z,74.31
2019-01-08T08:15:53.070Z,73.06
2019-01-08T08:18:22.469Z,72.99
2019-01-08T08:20:51.856Z,72.09
2019-01-08T08:23:21.189Z,71.89
2019-01-08T08:25:50.559Z,72.00
2019-01-08T08:28:18.988Z,73.85
2019-01-08T08:30:47.444Z,72.92
2019-01-08T08:33:16.774Z,82.84
2019-01-08T08:35:46.141Z,71.42
2019-01-08T08:38:15.439Z,71.56
2019-01-08T08:40:44.802Z,71.81
2019-01-08T08:43:14.130Z,74.00
2019-01-08T08:45:43.476Z,75.85
2019-01-08T08:48:12.805Z,73.50
2019-01-08T08:50:42.147Z,71.72
2019-01-08T08:53:11.664Z,71.56
2019-01-08T08:55:41.074Z,73.41
2019-01-08T08:58:09.443Z,72.19
2019-01-08T09:00:38.778Z,71.54
2019-01-08T09:03:08.112Z,78.87
2019-01-08T09:05:37.534Z,71.44
2019-01-08T09:08:06.890Z,71.47
2019-01-08T09:10:36.266Z,73.77
2019-01-08T09:13:05.588Z,73.96
2019-01-08T09:15:34.998Z,74.17
2019-01-08T09:18:04.331Z,71.45
2019-01-08T09:20:32.778Z,70.88
2019-01-08T09:23:02.131Z,72.84
2019-01-08T09:25:30.654Z,71.57
2019-01-08T09:28:00.004Z,73.08
2019-01-08T09:30:29.371Z,71.31
2019-01-08T09:33:19.150Z,71.44
2019-01-08T09:36:11.683Z,71.04
2019-01-08T09:39:06.445Z,80.59
2019-01-08T09:41:45.017Z,71.53
2019-01-08T09:44:28.840Z,70.52
2019-01-08T09:47:50.953Z,70.85
2019-01-08T09:50:38.127Z,70.87
2019-01-08T09:53:39.609Z,69.43
2019-01-08T09:56:25.458Z,69.77
2019-01-08T09:58:54.468Z,73.61
2019-01-08T10:01:30.392Z,74.21
2019-01-08T10:04:21.066Z,69.01
2019-01-08T10:07:01.152Z,67.27
2019-01-08T10:09:45.246Z,68.22
2019-01-08T10:24:13.976Z,66.31
2019-01-08T10:30:29.292Z,66.60
2019-01-08T10:36:34.687Z,67.07
2019-01-08T10:45:14.130Z,64.75
2019-01-08T10:54:30.698Z,61.35
2019-01-08T10:57:30.953Z,63.79
2019-01-08T11:03:22.591Z,70.15
2019-01-08T11:43:58.666Z,65.97
2019-01-08T11:47:02.466Z,68.18
2019-01-08T11:49:37.821Z,66.49
2019-01-08T11:52:07.165Z,64.94
2019-01-08T11:54:40.945Z,73.42
2019-01-08T11:57:25.813Z,67.11
2019-01-08T11:59:55.133Z,66.02
2019-01-08T12:02:24.480Z,70.01
2019-01-08T12:04:53.789Z,64.13
2019-01-08T12:07:22.329Z,63.88
2019-01-08T12:09:51.647Z,64.42
2019-01-08T12:12:20.649Z,68.19
2019-01-08T12:14:49.993Z,75.90
2019-01-08T12:17:19.358Z,65.63
2019-01-08T12:19:48.666Z,66.86
2019-01-08T12:22:17.992Z,66.16
2019-01-08T12:24:47.374Z,67.35
2019-01-08T12:27:16.730Z,67.94
2019-01-08T12:29:45.173Z,67.67
2019-01-08T12:32:13.615Z,69.80
2019-01-08T12:34:42.259Z,69.44
2019-01-08T12:37:11.786Z,68.40
2019-01-08T12:39:41.141Z,68.54
2019-01-08T12:42:10.549Z,68.29
2019-01-08T12:44:40.071Z,67.66
2019-01-08T12:47:09.394Z,66.65
2019-01-08T12:49:38.722Z,67.77
2019-01-08T12:52:08.142Z,66.17
2019-01-08T12:54:37.502Z,70.73
2019-01-08T12:57:06.029Z,67.32
2019-01-08T12:59:34.487Z,68.68
2019-01-08T13:02:03.936Z,67.96
2019-01-08T13:04:33.334Z,67.27
2019-01-08T13:07:02.686Z,70.12
2019-01-08T13:09:32.033Z,68.02
2019-01-08T13:12:01.347Z,68.09
2019-01-08T13:14:30.672Z,67.03
2019-01-08T13:16:59.986Z,69.34
2019-01-08T13:19:29.315Z,67.42
2019-01-08T13:21:58.627Z,70.82
2019-01-08T13:24:27.252Z,65.53
2019-01-08T13:26:55.784Z,66.08
2019-01-08T13:29:25.097Z,65.82
2019-01-08T13:31:54.454Z,66.29
2019-01-08T13:34:23.806Z,66.41
2019-01-08T13:36:53.161Z,65.83
2019-01-08T13:39:22.542Z,68.93
2019-01-08T13:41:51.899Z,68.87
2019-01-08T13:44:21.337Z,66.90
2019-01-08T13:46:50.641Z,66.72
2019-01-08T13:49:19.366Z,69.02
2019-01-08T13:51:47.794Z,66.29
2019-01-08T13:54:17.125Z,65.74
2019-01-08T13:56:46.473Z,65.60
2019-01-08T13:59:15.805Z,66.24
2019-01-08T14:01:45.166Z,65.94
2019-01-08T14:04:14.666Z,66.35
2019-01-08T14:06:44.073Z,67.14
2019-01-08T14:09:13.439Z,66.95
2019-01-08T14:11:42.777Z,67.45
2019-01-08T14:14:12.101Z,67.70
2019-01-08T14:16:40.728Z,68.86
2019-01-08T14:19:10.169Z,68.71
2019-01-08T14:21:39.501Z,68.15
2019-01-08T14:24:08.837Z,68.52
2019-01-08T14:26:38.162Z,68.76
2019-01-08T14:29:07.497Z,68.20
2019-01-08T14:31:36.185Z,68.23
2019-01-08T14:34:05.529Z,69.00
2019-01-08T14:36:34.851Z,69.28
2019-01-08T14:39:05.828Z,69.11
2019-01-08T14:41:34.504Z,68.74
2019-01-08T14:44:03.022Z,69.50
2019-01-08T14:46:31.542Z,70.34
2019-01-08T14:49:00.860Z,70.32
2019-01-08T14:51:30.259Z,70.20
2019-01-08T14:53:59.624Z,70.51
2019-01-08T14:56:28.138Z,71.28
2019-01-08T14:58:57.473Z,72.05
2019-01-08T15:01:26.804Z,72.66
2019-01-08T15:03:56.145Z,73.01
2019-01-08T15:06:25.461Z,73.02
2019-01-08T15:08:54.808Z,72.92
2019-01-08T15:11:23.901Z,73.30
2019-01-08T15:13:53.305Z,73.32
2019-01-08T15:16:22.675Z,73.34
2019-01-08T15:19:11.448Z,72.53
2019-01-08T15:21:40.786Z,73.92
2019-01-08T15:24:10.105Z,73.34
2019-01-08T15:26:39.459Z,73.73
2019-01-08T15:29:08.841Z,73.57
2019-01-08T15:31:38.172Z,73.44
2019-01-08T15:34:07.526Z,72.27
2019-01-08T15:36:36.830Z,71.88
2019-01-08T15:39:06.643Z,72.15
2019-01-08T15:41:35.172Z,72.37
2019-01-08T15:44:04.499Z,72.36
2019-01-08T15:46:33.822Z,72.82
2019-01-08T15:49:03.191Z,72.78
2019-01-08T15:51:32.532Z,72.82
2019-01-08T15:54:01.853Z,72.87
2019-01-08T15:56:30.798Z,72.98
2019-01-08T15:59:00.184Z,74.16
2019-01-08T16:01:29.512Z,74.99
2019-01-08T16:03:58.048Z,74.82
2019-01-08T16:06:26.455Z,74.36
2019-01-08T16:08:55.180Z,75.51
2019-01-08T16:11:24.503Z,74.70
2019-01-08T16:13:53.823Z,74.87
2019-01-08T16:16:23.132Z,76.06
2019-01-08T16:18:52.612Z,75.55
2019-01-08T16:21:21.947Z,75.39
2019-01-08T16:23:51.262Z,76.11
2019-01-08T16:26:20.602Z,74.36
2019-01-08T16:28:49.933Z,75.12
2019-01-08T16:31:19.730Z,75.17
2019-01-08T16:33:49.349Z,74.80
2019-01-08T16:36:17.980Z,74.33
2019-01-08T16:38:47.312Z,73.83
2019-01-08T16:41:16.639Z,73.93
2019-01-08T16:43:45.977Z,74.07
2019-01-08T16:46:15.311Z,73.87
2019-01-08T16:48:44.635Z,73.56
2019-01-08T16:51:13.962Z,73.79
2019-01-08T16:53:43.292Z,73.82
2019-01-08T16:56:11.739Z,73.50
2019-01-08T16:58:41.071Z,74.99
2019-01-08T17:01:10.523Z,74.03
2019-01-08T17:03:39.849Z,74.39
2019-01-08T17:06:09.185Z,75.09
2019-01-08T17:08:38.519Z,74.96
2019-01-08T17:11:07.841Z,77.12
2019-01-08T17:13:37.185Z,74.48
2019-01-08T17:16:06.512Z,74.86
2019-01-08T17:18:35.817Z,75.86
2019-01-08T17:21:05.145Z,76.65
2019-01-08T17:23:33.551Z,76.92
2019-01-08T17:28:48.033Z,76.44
2019-01-08T17:31:17.355Z,77.87
2019-01-08T17:33:46.705Z,76.33
2019-01-08T17:36:16.031Z,76.04
2019-01-08T17:38:45.425Z,75.94
2019-01-08T17:41:13.934Z,76.42
2019-01-08T17:43:42.450Z,76.88
2019-01-08T17:46:11.794Z,77.26
2019-01-08T17:48:41.124Z,76.84
2019-01-08T17:51:09.851Z,77.56
2019-01-08T17:53:39.227Z,77.62
2019-01-08T17:56:08.570Z,78.52
2019-01-08T17:59:15.815Z,79.49
2019-01-08T18:02:06.504Z,79.69
2019-01-08T18:07:38.918Z,79.85
2019-01-08T18:10:08.291Z,79.26
2019-01-08T18:12:37.607Z,79.03
2019-01-08T18:15:06.967Z,79.14
2019-01-08T18:17:36.142Z,79.76
2019-01-08T18:20:04.886Z,80.93
2019-01-08T18:22:33.457Z,79.74
2019-01-08T18:25:02.856Z,80.26
2019-01-08T18:27:32.318Z,80.07
2019-01-08T18:30:01.654Z,79.90
2019-01-08T18:32:30.280Z,80.41
2019-01-08T18:34:58.812Z,80.14
2019-01-08T18:40:29.857Z,80.93
2019-01-08T18:42:58.403Z,81.09
2019-01-08T18:45:27.731Z,81.78
2019-01-08T18:47:57.050Z,82.67
2019-01-08T18:50:26.436Z,82.41
2019-01-08T18:52:55.761Z,82.23
2019-01-08T18:55:25.102Z,81.66
2019-01-08T19:00:55.715Z,82.51
2019-01-08T19:06:25.974Z,82.11
2019-01-08T19:09:33.146Z,81.83
2019-01-08T19:12:02.352Z,82.56
2019-01-08T19:14:36.502Z,82.65
2019-01-08T19:20:08.796Z,82.13
2019-01-08T19:25:40.317Z,83.64
2019-01-08T19:28:09.036Z,85.24
2019-01-08T19:33:39.859Z,83.17
2019-01-08T19:36:09.218Z,83.73
2019-01-08T19:38:38.537Z,84.75
2019-01-08T19:41:07.924Z,84.42
2019-01-08T19:43:37.264Z,83.20
2019-01-08T19:46:06.585Z,83.21
2019-01-08T19:48:46.972Z,83.60
2019-01-08T19:51:15.928Z,84.28
2019-01-08T19:53:45.317Z,84.51
2019-01-08T19:59:15.911Z,84.59
2019-01-08T20:01:45.330Z,83.86
2019-01-08T20:04:18.093Z,84.53
2019-01-08T20:10:06.845Z,83.41
2019-01-08T20:12:36.482Z,84.45
2019-01-08T20:15:07.348Z,83.42
2019-01-08T20:17:36.492Z,84.64
2019-01-08T20:20:07.037Z,84.13
2019-01-08T20:22:36.371Z,86.47
2019-01-08T20:25:05.287Z,84.61
2019-01-08T20:30:36.286Z,83.74
2019-01-08T20:33:05.109Z,84.70
2019-01-08T20:35:34.432Z,85.13
2019-01-08T20:38:03.814Z,85.04
2019-01-08T20:40:33.138Z,85.08
2019-01-08T20:43:01.756Z,85.52
2019-01-08T20:45:31.139Z,85.36
2019-01-08T20:47:59.669Z,84.98
2019-01-08T20:50:28.978Z,85.16
2019-01-08T20:52:58.103Z,85.58
2019-01-08T20:55:26.766Z,85.56
2019-01-08T20:57:56.107Z,86.04
2019-01-08T21:00:24.530Z,85.21
2019-01-08T21:02:53.940Z,86.03
2019-01-08T21:05:23.294Z,85.54
2019-01-08T21:07:52.614Z,85.60
2019-01-08T21:10:21.938Z,84.53
2019-01-08T21:12:50.612Z,83.87
2019-01-08T21:15:20.022Z,84.74
2019-01-08T21:17:48.540Z,85.02
2019-01-08T21:20:17.069Z,84.05
2019-01-08T21:22:46.433Z,84.30
2019-01-08T21:25:15.759Z,84.25
2019-01-08T21:31:00.042Z,85.10
2019-01-08T21:36:31.344Z,84.15
2019-01-08T21:39:00.277Z,85.41
2019-01-08T21:44:31.261Z,85.10
2019-01-08T21:46:59.785Z,83.25
2019-01-08T21:49:28.460Z,85.93
2019-01-08T21:51:57.767Z,85.00
2019-01-08T21:54:27.075Z,84.36
2019-01-08T21:56:56.388Z,83.59
2019-01-08T22:08:32.736Z,87.17
2019-01-08T22:11:22.478Z,87.11
2019-01-08T22:13:51.836Z,86.45
2019-01-08T22:19:22.911Z,87.47
2019-01-08T22:24:54.238Z,86.73
2019-01-08T22:27:22.756Z,87.11
2019-01-08T22:32:53.379Z,86.34
2019-01-08T22:35:21.796Z,87.56
2019-01-08T22:38:12.341Z,87.71
2019-01-08T22:43:45.925Z,88.21
2019-01-08T22:46:15.248Z,88.22
2019-01-08T22:48:43.701Z,88.69
2019-01-08T22:51:12.270Z,88.18
2019-01-08T22:53:41.584Z,87.10
2019-01-08T22:56:10.105Z,86.98
2019-01-08T22:58:39.587Z,87.33
2019-01-08T23:01:28.450Z,87.57
2019-01-08T23:03:57.877Z,86.87
2019-01-08T23:06:27.205Z,88.18
2019-01-08T23:08:55.928Z,87.32
2019-01-08T23:14:26.853Z,88.15
2019-01-08T23:26:14.191Z,88.31
2019-01-08T23:34:47.451Z,87.43
2019-01-08T23:40:19.008Z,86.79
2019-01-08T23:42:47.458Z,87.28
2019-01-08T23:48:18.077Z,87.53
2019-01-08T23:53:49.762Z,87.87
2019-01-08T23:56:18.401Z,87.78
